Time;durP1;ratioP1;P1;durP2;ratioP2;P2;SDS_P1;SDS_P2;PMS_P1;PMS_P2;Temp;Humidity;BMP_temperature;BMP_pressure;BME280_temperature;BME280_humidity;BME280_pressure;Samples;Min_cycle;Max_cycle;Signal;HPM_P1;HPM_P2
2023/08/16 00:02:04;;;;;;;3.78;2.17;;;17.60;99.90;;;16.97;100.00;98076.16;4999614;28;20049;-75
2023/08/16 00:04:31;;;;;;;3.35;2.25;;;17.60;99.90;;;16.86;100.00;98076.78;5003518;28;20411;-75
2023/08/16 00:06:59;;;;;;;6.90;3.05;;;17.60;99.90;;;16.92;100.00;98079.03;4998666;28;20060;-74
2023/08/16 00:09:29;;;;;;;5.53;2.25;;;17.50;99.90;;;16.88;100.00;98074.06;5005997;28;20104;-74
2023/08/16 00:11:56;;;;;;;2.38;1.92;;;17.50;99.90;;;16.77;100.00;98073.84;5001309;28;20065;-75
2023/08/16 00:14:23;;;;;;;3.50;1.13;;;17.50;99.90;;;16.68;100.00;98060.34;5005632;28;20053;-73
2023/08/16 00:16:51;;;;;;;2.15;1.30;;;17.40;99.90;;;16.77;100.00;98060.75;5002942;28;20515;-75
2023/08/16 00:19:18;;;;;;;4.43;1.20;;;17.40;99.90;;;16.87;100.00;98059.25;5000821;28;20100;-74
2023/08/16 00:21:45;;;;;;;4.00;1.40;;;17.40;99.90;;;16.83;100.00;98053.38;5018125;28;20112;-73
2023/08/16 00:24:12;;;;;;;2.15;1.48;;;17.40;99.90;;;16.83;100.00;98048.13;5005965;28;20077;-74
2023/08/16 00:26:39;;;;;;;2.22;1.23;;;17.40;99.90;;;16.84;100.00;98052.44;5002806;28;20050;-74
2023/08/16 00:29:06;;;;;;;2.22;1.20;;;17.40;99.90;;;16.92;100.00;98044.97;4999360;28;20485;-74
2023/08/16 00:31:33;;;;;;;3.65;1.70;;;17.40;99.90;;;16.90;100.00;98045.97;5007415;28;20472;-74
2023/08/16 00:34:00;;;;;;;7.55;2.50;;;17.40;99.90;;;16.57;100.00;98047.03;5000834;28;20041;-74
2023/08/16 00:36:27;;;;;;;12.85;1.95;;;17.40;99.90;;;16.62;100.00;98050.22;5001980;28;20518;-74
2023/08/16 00:38:54;;;;;;;3.40;1.20;;;17.30;99.90;;;16.55;100.00;98048.91;5001719;28;20058;-75
2023/08/16 00:41:21;;;;;;;10.05;1.98;;;17.20;99.90;;;16.70;100.00;98042.75;5000870;28;20475;-75
2023/08/16 00:43:48;;;;;;;15.20;2.75;;;17.20;99.90;;;16.85;100.00;98032.28;5016391;28;20057;-74
2023/08/16 00:46:17;;;;;;;15.65;2.90;;;17.30;99.90;;;16.75;100.00;98031.16;5002936;28;20676;-74
2023/08/16 00:48:45;;;;;;;10.45;1.83;;;17.30;99.90;;;16.88;100.00;98040.00;5004157;28;20050;-75
2023/08/16 00:51:14;;;;;;;23.13;2.72;;;17.40;99.90;;;16.83;100.00;98031.53;5003421;28;20053;-75
2023/08/16 00:53:42;;;;;;;13.27;2.95;;;17.40;99.90;;;16.85;100.00;98041.00;5004835;28;20147;-74
2023/08/16 00:56:09;;;;;;;21.63;2.63;;;17.40;99.90;;;16.85;100.00;98041.00;5005026;28;20109;-75
2023/08/16 00:58:37;;;;;;;26.13;2.58;;;17.50;99.90;;;16.60;100.00;98040.75;5005619;28;20443;-74
2023/08/16 01:01:05;;;;;;;8.02;2.40;;;17.40;99.90;;;16.62;100.00;98042.34;5007711;28;20550;-75
2023/08/16 01:03:32;;;;;;;16.25;2.30;;;17.30;99.90;;;16.59;100.00;98033.84;5004655;28;20050;-74
2023/08/16 01:05:59;;;;;;;19.42;2.45;;;17.30;99.90;;;16.53;100.00;98035.03;5007173;28;20415;-75
2023/08/16 01:08:27;;;;;;;6.05;2.33;;;17.30;99.90;;;16.62;100.00;98041.50;5030637;28;20085;-74
2023/08/16 01:10:56;;;;;;;6.53;2.40;;;17.20;99.90;;;16.62;100.00;98047.59;5006127;28;20050;-75
2023/08/16 01:13:52;;;;;;;6.35;2.60;;;17.20;99.90;;;16.69;100.00;98041.06;4989929;28;20045;-74
2023/08/16 01:16:22;;;;;;;16.50;3.15;;;17.20;99.90;;;16.75;100.00;98042.47;4992857;28;20074;-74
2023/08/16 01:18:52;;;;;;;10.10;2.65;;;17.30;99.90;;;16.64;100.00;98053.59;5003029;28;20057;-74
2023/08/16 01:21:22;;;;;;;39.25;6.50;;;17.30;99.90;;;16.76;100.00;98062.50;5021705;28;20074;-74
2023/08/16 01:24:26;;;;;;;7.43;2.85;;;17.30;99.90;;;16.88;100.00;98074.06;5016142;28;20526;-74
2023/08/16 01:26:54;;;;;;;7.75;2.92;;;17.40;99.90;;;16.98;100.00;98076.97;5005721;28;21040;-75
2023/08/16 01:29:22;;;;;;;4.95;2.83;;;17.50;99.90;;;17.07;100.00;98079.03;4989986;28;20110;-74
2023/08/16 01:31:50;;;;;;;3.90;3.20;;;17.50;99.90;;;17.09;100.00;98085.03;5002773;28;20050;-74
2023/08/16 01:34:18;;;;;;;4.03;2.80;;;17.60;99.90;;;17.09;100.00;98087.66;5002101;28;20050;-74
2023/08/16 01:36:46;;;;;;;3.28;2.13;;;17.60;99.90;;;17.22;100.00;98085.97;5003698;28;20049;-73
2023/08/16 01:39:13;;;;;;;5.63;2.40;;;17.70;99.90;;;17.26;100.00;98089.25;5006444;28;20112;-74
2023/08/16 01:41:50;;;;;;;6.03;2.60;;;17.70;99.90;;;17.32;100.00;98073.13;5005113;28;20069;-74
2023/08/16 01:44:18;;;;;;;4.03;2.33;;;17.70;99.90;;;17.33;100.00;98070.41;5017231;28;20057;-74
2023/08/16 01:46:46;;;;;;;5.07;2.03;;;17.70;99.90;;;17.45;100.00;98074.06;5015152;28;20892;-75
2023/08/16 01:49:14;;;;;;;5.68;2.72;;;17.80;99.90;;;17.15;100.00;98068.91;5000689;28;20046;-74
2023/08/16 01:51:41;;;;;;;4.30;2.25;;;17.70;99.90;;;17.14;100.00;98068.06;5018980;28;20058;-74
2023/08/16 01:54:11;;;;;;;4.25;2.45;;;17.60;99.90;;;17.20;100.00;98056.38;5005193;28;20046;-74
2023/08/16 01:56:38;;;;;;;3.45;1.80;;;17.60;99.90;;;17.00;100.00;98035.78;5003076;28;20065;-74
2023/08/16 01:59:05;;;;;;;5.90;2.00;;;17.70;99.90;;;16.98;100.00;97993.91;5019695;28;20195;-75
2023/08/16 02:01:32;;;;;;;6.60;2.35;;;17.70;99.90;;;17.20;100.00;97979.47;5002786;28;20085;-75
2023/08/16 02:03:59;;;;;;;8.48;3.38;;;17.60;99.90;;;17.19;100.00;97978.59;5004330;28;20050;-74
2023/08/16 02:06:29;;;;;;;4.75;2.92;;;17.60;99.90;;;16.94;100.00;97987.16;5003647;28;20147;-74
2023/08/16 02:08:56;;;;;;;7.28;3.40;;;17.40;99.90;;;16.80;100.00;98006.34;5006060;28;20057;-75
2023/08/16 02:11:24;;;;;;;5.68;3.08;;;17.20;99.90;;;16.81;100.00;98042.16;4998299;28;20596;-75
2023/08/16 02:13:51;;;;;;;6.85;3.47;;;17.10;99.90;;;16.95;100.00;98048.34;4989299;28;20361;-75
2023/08/16 02:16:18;;;;;;;4.47;2.85;;;17.10;99.90;;;17.04;100.00;98061.72;5001490;28;20058;-75
2023/08/16 02:18:45;;;;;;;5.82;3.28;;;17.30;99.90;;;16.96;100.00;98050.00;5000448;28;20065;-74
2023/08/16 02:21:12;;;;;;;5.82;1.90;;;17.30;99.90;;;17.00;100.00;98051.50;5003351;28;20218;-75
2023/08/16 02:23:39;;;;;;;4.65;2.67;;;17.40;99.90;;;17.29;100.00;98054.97;5002121;28;20057;-75
2023/08/16 02:26:06;;;;;;;5.93;3.50;;;17.60;99.90;;;17.29;100.00;98050.56;5008424;28;20678;-75
2023/08/16 02:28:33;;;;;;;5.10;1.90;;;17.60;99.90;;;17.19;100.00;98054.66;5001754;28;20499;-74
2023/08/16 02:31:07;;;;;;;6.32;2.78;;;17.60;99.90;;;17.17;100.00;98051.28;4999986;28;20699;-75
2023/08/16 02:33:35;;;;;;;3.03;2.38;;;17.60;99.90;;;17.11;100.00;98049.91;5002397;28;20077;-75
2023/08/16 02:36:03;;;;;;;3.97;2.83;;;17.60;99.90;;;17.11;100.00;98044.66;5005721;28;20805;-75
2023/08/16 02:38:30;;;;;;;5.03;2.72;;;17.60;99.90;;;17.16;100.00;98041.75;4999219;28;20507;-75
2023/08/16 02:40:57;;;;;;;5.57;4.25;;;17.60;99.90;;;17.21;100.00;98042.31;5003084;28;20497;-75
2023/08/16 02:43:24;;;;;;;4.75;2.83;;;17.70;99.90;;;17.06;100.00;98038.88;4990649;28;20156;-75
2023/08/16 02:45:54;;;;;;;5.05;3.75;;;17.70;99.90;;;17.17;100.00;98034.72;5004754;28;20050;-74
2023/08/16 02:48:21;;;;;;;5.25;3.53;;;17.70;99.90;;;17.24;100.00;98030.78;5001842;28;20069;-75
2023/08/16 02:50:48;;;;;;;8.50;5.05;;;17.70;99.90;;;17.27;100.00;98038.47;5029491;28;20153;-75
2023/08/16 02:53:16;;;;;;;6.95;2.65;;;17.70;99.90;;;17.17;100.00;98038.19;5000736;28;20054;-75
2023/08/16 02:55:43;;;;;;;5.05;3.88;;;17.70;99.90;;;17.25;100.00;98035.94;5030919;28;20061;-75
2023/08/16 02:58:11;;;;;;;5.05;3.15;;;17.70;99.90;;;17.19;100.00;98020.56;4999559;28;20077;-72
2023/08/16 03:00:38;;;;;;;4.68;3.08;;;17.60;99.90;;;17.12;100.00;98019.28;5004097;28;20519;-74
2023/08/16 03:03:06;;;;;;;5.20;3.65;;;17.60;99.90;;;17.23;100.00;98014.19;5001215;28;20065;-74
2023/08/16 03:05:34;;;;;;;8.20;4.43;;;17.50;99.90;;;17.14;100.00;98023.47;5000459;28;20133;-74
2023/08/16 03:08:01;;;;;;;6.57;4.43;;;17.50;99.90;;;17.36;100.00;98016.91;5016775;28;20046;-75
2023/08/16 03:10:28;;;;;;;4.28;3.20;;;17.50;99.90;;;17.23;100.00;98011.56;5002420;28;20137;-74
2023/08/16 03:12:55;;;;;;;10.93;4.25;;;17.60;99.90;;;17.02;100.00;98003.28;5000252;28;20125;-75
2023/08/16 03:15:23;;;;;;;5.97;4.30;;;17.60;99.90;;;17.13;100.00;98007.84;4999076;28;20514;-75
2023/08/16 03:17:50;;;;;;;17.48;3.83;;;17.60;99.90;;;17.09;100.00;98012.44;4998313;28;20154;-74
2023/08/16 03:20:17;;;;;;;17.70;5.28;;;17.60;99.90;;;17.17;100.00;98009.31;4999259;28;20145;-75
2023/08/16 03:22:44;;;;;;;4.65;3.80;;;17.60;99.90;;;17.27;100.00;98015.69;4995366;28;20058;-75
2023/08/16 03:25:11;;;;;;;3.58;2.65;;;17.60;99.90;;;17.26;100.00;98014.00;5003401;28;20057;-75
2023/08/16 03:27:38;;;;;;;4.18;2.75;;;17.60;99.90;;;17.29;100.00;98011.19;4994727;28;20081;-74
2023/08/16 03:30:07;;;;;;;5.40;3.95;;;17.70;99.90;;;17.16;100.00;98014.69;4995884;28;20049;-75
2023/08/16 03:32:34;;;;;;;5.05;4.55;;;17.70;99.90;;;17.22;100.00;98011.66;4997292;28;20053;-75
2023/08/16 03:35:02;;;;;;;7.88;4.75;;;17.60;99.90;;;17.13;100.00;98019.19;5016824;28;20104;-75
2023/08/16 03:37:29;;;;;;;7.00;3.33;;;17.60;99.90;;;17.19;100.00;98017.09;4999682;28;20132;-74
2023/08/16 03:39:57;;;;;;;6.00;4.00;;;17.60;99.90;;;17.27;100.00;98025.34;5004691;28;20147;-75
2023/08/16 03:42:24;;;;;;;5.07;3.05;;;17.70;99.90;;;16.99;100.00;98015.72;5029815;28;20054;-74
2023/08/16 03:44:52;;;;;;;4.53;3.20;;;17.70;99.90;;;17.10;100.00;98021.97;4997543;28;20146;-75
2023/08/16 03:47:19;;;;;;;10.57;5.30;;;17.70;99.90;;;17.09;100.00;98030.78;4997767;28;20073;-74
2023/08/16 03:49:50;;;;;;;6.90;3.80;;;17.60;99.90;;;17.12;100.00;98041.09;5001853;28;20054;-74
2023/08/16 03:52:17;;;;;;;3.22;2.40;;;17.60;99.90;;;17.10;100.00;98042.13;5015728;28;20045;-74
2023/08/16 03:54:44;;;;;;;7.57;3.63;;;17.60;99.90;;;17.01;100.00;98048.78;5002801;28;20061;-74
2023/08/16 03:57:11;;;;;;;8.70;2.65;;;17.60;99.90;;;16.93;100.00;98049.25;5001037;28;20065;-74
2023/08/16 03:59:38;;;;;;;7.65;4.25;;;17.50;99.90;;;17.11;100.00;98049.06;5017400;28;20092;-75
2023/08/16 04:02:05;;;;;;;5.95;2.80;;;17.50;99.90;;;17.09;100.00;98046.53;5000900;28;20093;-75
2023/08/16 04:04:33;;;;;;;5.35;3.25;;;17.50;99.90;;;17.21;100.00;98054.59;5003404;28;20419;-74
2023/08/16 04:07:00;;;;;;;6.97;3.88;;;17.50;99.90;;;17.23;100.00;98063.22;5002595;28;20052;-75
2023/08/16 04:09:27;;;;;;;13.52;3.50;;;17.60;99.90;;;17.26;100.00;98063.84;4999212;28;20168;-74
2023/08/16 04:11:55;;;;;;;3.60;2.60;;;17.60;99.90;;;17.08;100.00;98050.09;5001990;28;20088;-75
2023/08/16 04:14:22;;;;;;;7.20;2.80;;;17.60;99.90;;;16.97;100.00;98018.47;4999456;28;20054;-75
2023/08/16 04:16:49;;;;;;;33.08;4.40;;;17.60;99.90;;;17.04;100.00;98011.06;4995352;28;20081;-75
2023/08/16 04:19:16;;;;;;;11.98;4.95;;;17.50;99.90;;;16.84;100.00;98031.47;4996525;28;20046;-76
2023/08/16 04:21:43;;;;;;;8.52;6.40;;;17.30;99.90;;;17.03;100.00;98060.00;4987450;28;20112;-75
2023/08/16 04:24:10;;;;;;;10.60;6.40;;;17.30;99.90;;;17.28;100.00;98061.97;4996775;28;20054;-76
2023/08/16 04:26:37;;;;;;;6.50;4.32;;;17.40;99.90;;;17.30;100.00;98052.22;5002554;28;20058;-74
2023/08/16 04:29:04;;;;;;;6.53;4.93;;;17.50;99.90;;;17.44;100.00;98056.59;5028730;28;20670;-75
2023/08/16 04:31:32;;;;;;;8.77;6.88;;;17.60;99.90;;;17.51;100.00;98051.81;5013533;28;20051;-75
2023/08/16 04:34:00;;;;;;;10.00;6.57;;;17.70;99.90;;;17.58;100.00;98050.47;5004893;28;20145;-76
2023/08/16 04:36:27;;;;;;;7.75;5.30;;;17.70;99.90;;;17.66;100.00;98040.34;4999662;28;20134;-75
2023/08/16 04:38:54;;;;;;;10.45;6.32;;;17.70;99.90;;;17.48;100.00;98041.53;5000021;28;20139;-75
2023/08/16 04:41:21;;;;;;;11.02;6.88;;;17.70;99.90;;;17.44;100.00;98043.47;5000229;28;20088;-75
2023/08/16 04:43:48;;;;;;;9.65;6.03;;;17.70;99.90;;;17.52;100.00;98032.53;4997365;28;20511;-75
2023/08/16 04:46:15;;;;;;;10.43;6.72;;;17.80;99.90;;;17.53;100.00;98026.31;4999710;28;20121;-75
2023/08/16 04:48:42;;;;;;;16.05;8.00;;;17.80;99.90;;;17.75;100.00;98023.16;4999901;28;20081;-76
2023/08/16 04:51:09;;;;;;;17.63;7.50;;;17.80;99.90;;;17.67;100.00;98020.19;4999181;28;20116;-74
2023/08/16 04:53:36;;;;;;;16.80;7.85;;;17.80;99.90;;;17.86;100.00;98014.59;5002592;28;20412;-75
2023/08/16 04:56:04;;;;;;;20.67;7.03;;;17.90;99.90;;;17.84;100.00;98011.25;5008726;28;20050;-74
2023/08/16 04:58:31;;;;;;;21.45;10.48;;;17.90;99.90;;;17.75;100.00;98016.13;4988794;28;20060;-75
2023/08/16 05:00:58;;;;;;;18.80;10.27;;;17.80;99.90;;;17.85;100.00;98023.44;5008197;28;20063;-75
2023/08/16 05:03:25;;;;;;;14.65;8.77;;;17.80;99.90;;;17.74;100.00;98024.97;4992339;28;20450;-75
2023/08/16 05:06:03;;;;;;;15.07;8.68;;;17.80;99.90;;;17.71;100.00;98027.75;4998490;28;20050;-76
2023/08/16 05:08:31;;;;;;;8.95;5.82;;;17.80;99.90;;;17.81;100.00;98033.28;5002215;28;20050;-76
2023/08/16 05:10:58;;;;;;;10.85;7.88;;;17.90;99.90;;;17.84;100.00;98033.09;5018648;28;20078;-75
2023/08/16 05:13:25;;;;;;;10.48;6.95;;;17.90;99.90;;;17.96;100.00;98034.91;5019127;28;20042;-75
2023/08/16 05:15:55;;;;;;;11.70;7.70;;;17.90;99.90;;;17.93;100.00;98027.25;4998221;28;20821;-72
2023/08/16 05:18:25;;;;;;;11.63;8.30;;;17.90;99.90;;;17.95;100.00;98030.63;4999507;28;20125;-74
2023/08/16 05:20:56;;;;;;;31.73;7.25;;;18.00;99.90;;;17.68;100.00;98032.38;5005371;28;20515;-76
2023/08/16 05:23:23;;;;;;;17.20;8.73;;;18.00;99.90;;;17.62;100.00;98030.16;5021203;28;20054;-74
2023/08/16 05:25:51;;;;;;;11.07;7.10;;;18.00;99.90;;;17.67;100.00;98043.81;5025956;28;20057;-75
2023/08/16 05:28:18;;;;;;;18.27;10.95;;;17.90;99.90;;;17.72;100.00;98046.97;5010920;28;20074;-74
2023/08/16 05:30:45;;;;;;;229.27;16.23;;;17.90;99.90;;;17.56;100.00;98054.97;4993736;28;20084;-75
2023/08/16 05:33:13;;;;;;;745.83;34.05;;;17.90;99.90;;;17.49;100.00;98048.44;5000040;28;20042;-75
2023/08/16 05:35:40;;;;;;;482.25;20.90;;;17.90;99.90;;;17.42;100.00;98042.75;4987882;28;20058;-75
2023/08/16 05:38:08;;;;;;;1014.38;31.65;;;17.90;99.90;;;17.43;100.00;98049.69;5000725;28;20107;-75
2023/08/16 05:40:36;;;;;;;768.72;36.92;;;17.80;99.90;;;17.33;100.00;98054.69;5035530;28;20061;-74
2023/08/16 05:43:03;;;;;;;908.75;32.63;;;17.80;99.90;;;17.48;100.00;98058.09;4996967;28;20430;-75
2023/08/16 05:45:31;;;;;;;1046.18;31.80;;;17.80;99.90;;;17.38;100.00;98062.25;5019222;28;20136;-75
2023/08/16 05:47:58;;;;;;;1243.57;35.42;;;17.70;99.90;;;17.47;100.00;98066.06;5001259;28;20072;-75
2023/08/16 05:50:25;;;;;;;430.55;16.38;;;17.70;99.90;;;17.60;100.00;98066.97;5003940;28;20057;-74
2023/08/16 05:52:53;;;;;;;393.13;14.35;;;17.80;99.90;;;17.75;100.00;98075.69;5015555;28;20086;-75
2023/08/16 05:55:19;;;;;;;372.88;13.07;;;17.90;99.90;;;17.83;100.00;98072.59;5000769;28;20046;-73
2023/08/16 05:57:46;;;;;;;309.33;11.48;;;17.90;99.90;;;17.87;100.00;98066.19;5016890;28;20073;-75
2023/08/16 06:00:14;;;;;;;232.68;11.00;;;18.00;99.90;;;17.98;100.00;98066.34;5035213;28;20050;-75
2023/08/16 06:02:42;;;;;;;347.52;12.25;;;18.10;99.90;;;18.03;100.00;98064.25;5005004;28;20057;-75
2023/08/16 06:05:09;;;;;;;323.33;14.02;;;18.10;99.90;;;18.04;100.00;98058.09;4998817;28;20148;-75
2023/08/16 06:07:37;;;;;;;657.65;17.70;;;18.20;99.90;;;17.85;100.00;98062.81;4987925;28;20064;-74
2023/08/16 06:10:07;;;;;;;586.92;17.65;;;18.20;99.90;;;17.95;100.00;98067.41;4999811;28;20107;-74
2023/08/16 06:12:34;;;;;;;165.00;8.43;;;18.20;99.90;;;18.21;100.00;98071.88;5002803;28;20096;-74
2023/08/16 06:15:02;;;;;;;384.23;13.15;;;18.30;99.90;;;18.17;100.00;98063.34;4999841;28;20042;-75
2023/08/16 06:17:30;;;;;;;192.32;8.70;;;18.40;99.90;;;18.15;100.00;98074.00;4999709;28;20057;-75
2023/08/16 06:19:57;;;;;;;271.30;10.70;;;18.50;99.90;;;18.29;100.00;98070.44;4992922;28;20081;-75
2023/08/16 06:22:24;;;;;;;154.77;9.85;;;18.50;99.90;;;18.25;100.00;98076.84;5003158;28;20065;-74
2023/08/16 06:24:53;;;;;;;117.35;9.07;;;18.50;99.90;;;18.51;100.00;98076.88;5003404;28;20074;-74
2023/08/16 06:27:20;;;;;;;213.45;10.18;;;18.60;99.90;;;18.57;100.00;98079.13;5001376;28;20628;-73
2023/08/16 06:29:47;;;;;;;121.60;9.25;;;18.80;99.90;;;18.80;100.00;98069.69;4997449;28;20119;-75
2023/08/16 06:32:16;;;;;;;79.90;7.50;;;18.90;99.90;;;18.93;100.00;98067.06;5000553;28;20070;-74
2023/08/16 06:34:43;;;;;;;15.70;6.60;;;19.00;99.90;;;19.40;100.00;98066.38;5005583;28;20132;-75
2023/08/16 06:37:10;;;;;;;14.27;7.90;;;19.10;99.90;;;19.56;100.00;98078.44;5001588;28;20510;-75
2023/08/16 06:39:38;;;;;;;11.85;7.60;;;19.30;99.90;;;19.60;100.00;98075.50;5001860;28;20117;-75
2023/08/16 06:42:06;;;;;;;13.70;8.77;;;19.50;99.90;;;19.70;100.00;98074.88;5001133;28;20120;-74
2023/08/16 06:44:33;;;;;;;11.18;7.72;;;19.70;99.90;;;20.21;100.00;98078.13;4999012;28;20050;-75
2023/08/16 06:47:00;;;;;;;9.88;8.00;;;19.90;99.90;;;20.35;100.00;98084.19;5004265;28;20160;-75
2023/08/16 06:49:27;;;;;;;13.98;9.82;;;20.10;99.90;;;20.38;100.00;98082.13;5004537;28;20053;-75
2023/08/16 06:51:54;;;;;;;15.30;12.07;;;20.20;99.90;;;20.13;100.00;98079.66;5003502;28;20109;-75
2023/08/16 06:54:22;;;;;;;11.35;9.93;;;20.30;99.90;;;20.26;100.00;98081.25;4999725;28;20132;-75
2023/08/16 06:56:49;;;;;;;15.95;10.95;;;20.40;99.90;;;20.08;100.00;98076.53;5014255;28;20057;-76
2023/08/16 06:59:16;;;;;;;15.32;10.75;;;20.50;99.90;;;20.29;100.00;98082.00;5004174;28;20082;-75
2023/08/16 07:01:43;;;;;;;14.40;11.18;;;20.50;99.90;;;20.80;100.00;98079.03;4999426;28;20069;-75
2023/08/16 07:04:10;;;;;;;13.95;10.82;;;20.50;99.90;;;20.62;100.00;98065.47;5001547;28;20046;-75
2023/08/16 07:06:37;;;;;;;11.02;9.63;;;20.70;99.90;;;20.69;100.00;98058.78;5010296;28;20137;-75
2023/08/16 07:09:04;;;;;;;12.98;10.45;;;20.70;99.90;;;20.65;100.00;98057.31;4999543;28;20054;-74
2023/08/16 07:11:32;;;;;;;14.20;11.60;;;20.80;99.90;;;20.51;100.00;98046.97;5002921;28;20053;-75
2023/08/16 07:14:00;;;;;;;13.82;11.93;;;20.80;99.90;;;20.67;100.00;98058.06;5000503;28;20049;-75
2023/08/16 07:16:27;;;;;;;16.00;11.02;;;20.60;99.90;;;20.83;100.00;98060.34;5014843;28;20050;-75
2023/08/16 07:18:54;;;;;;;13.48;9.90;;;20.60;99.90;;;20.75;100.00;98055.66;5002228;28;20691;-75
2023/08/16 07:21:22;;;;;;;12.15;10.70;;;20.60;99.90;;;20.67;100.00;98050.97;5003389;28;20145;-75
2023/08/16 07:23:49;;;;;;;12.20;10.95;;;20.60;99.90;;;20.75;100.00;98052.19;4997718;28;20062;-75
2023/08/16 07:26:16;;;;;;;20.65;11.07;;;20.70;99.90;;;20.54;100.00;98049.34;5006719;28;20104;-75
2023/08/16 07:28:43;;;;;;;14.05;10.57;;;20.80;99.90;;;20.60;100.00;98044.50;5003897;28;20455;-75
2023/08/16 07:31:10;;;;;;;17.00;9.13;;;20.80;99.90;;;20.50;100.00;98042.63;5001554;28;20423;-75
2023/08/16 07:33:37;;;;;;;10.27;9.13;;;20.80;99.90;;;20.60;100.00;98044.50;4998704;28;20053;-75
2023/08/16 07:36:05;;;;;;;9.18;8.18;;;20.80;99.90;;;20.84;100.00;98041.75;4989218;28;20129;-75
2023/08/16 07:38:33;;;;;;;9.48;7.93;;;20.80;99.90;;;21.38;100.00;98034.09;5002348;28;20497;-74
2023/08/16 07:41:00;;;;;;;8.48;7.30;;;21.00;99.90;;;21.89;100.00;98034.34;5002402;28;20149;-75
2023/08/16 07:43:30;;;;;;;8.20;6.93;;;21.40;99.90;;;21.71;100.00;98031.41;5001398;28;20058;-75
2023/08/16 07:45:58;;;;;;;7.15;5.97;;;21.60;99.90;;;21.88;100.00;98018.63;5003349;28;20189;-75
2023/08/16 07:48:25;;;;;;;8.38;7.20;;;21.80;99.90;;;21.72;100.00;98004.03;5002674;28;20061;-75
2023/08/16 07:50:52;;;;;;;8.52;6.63;;;21.80;99.90;;;21.80;100.00;98007.84;5013066;28;20057;-75
2023/08/16 07:53:19;;;;;;;7.72;6.28;;;21.90;99.90;;;21.53;100.00;98014.41;4998428;28;20130;-75
2023/08/16 07:55:46;;;;;;;5.53;4.90;;;21.80;99.90;;;21.25;100.00;98006.00;4998822;28;20046;-75
2023/08/16 07:58:15;;;;;;;6.43;5.78;;;21.80;99.90;;;21.40;100.00;98001.34;4998903;28;20474;-74
2023/08/16 08:00:46;;;;;;;8.70;6.47;;;21.70;99.90;;;21.27;100.00;98001.44;5002091;28;20050;-74
2023/08/16 08:03:13;;;;;;;8.00;5.95;;;21.60;99.90;;;22.04;100.00;98016.41;5003904;28;20045;-75
2023/08/16 08:05:40;;;;;;;8.45;6.32;;;21.80;99.90;;;21.66;100.00;98019.53;5003365;28;20065;-75
2023/08/16 08:08:08;;;;;;;6.28;5.55;;;21.70;99.90;;;21.97;100.00;98019.69;5001348;28;20055;-75
2023/08/16 08:10:35;;;;;;;6.45;4.90;;;21.90;99.90;;;21.59;100.00;98018.34;4998598;28;20125;-74
2023/08/16 08:13:03;;;;;;;7.53;6.60;;;21.90;99.90;;;21.62;100.00;98021.59;4998227;28;20505;-75
2023/08/16 08:15:30;;;;;;;8.52;5.32;;;21.90;99.90;;;22.23;100.00;98021.03;4999263;28;20057;-75
2023/08/16 08:17:57;;;;;;;7.70;5.60;;;22.10;99.90;;;22.08;100.00;98017.00;4996269;28;20058;-75
2023/08/16 08:20:25;;;;;;;7.18;5.57;;;22.20;99.90;;;22.11;100.00;98003.50;4999932;28;20137;-75
2023/08/16 08:22:52;;;;;;;6.95;5.40;;;22.30;99.90;;;22.48;100.00;98003.94;5003021;28;20053;-75
2023/08/16 08:25:19;;;;;;;5.95;5.32;;;22.50;99.90;;;22.43;100.00;98003.50;5026166;28;20112;-75
2023/08/16 08:27:46;;;;;;;4.50;4.03;;;22.60;99.90;;;23.65;100.00;97993.84;5027125;28;20077;-75
2023/08/16 08:30:15;;;;;;;5.72;4.43;;;22.90;99.90;;;24.19;100.00;97979.19;5021202;28;20054;-75
2023/08/16 08:32:43;;;;;;;5.75;4.18;;;23.30;99.90;;;24.59;100.00;97958.78;5002696;28;20049;-74
2023/08/16 08:35:10;;;;;;;5.90;4.20;;;23.70;99.90;;;24.52;100.00;97961.19;5009823;28;20949;-75
2023/08/16 08:37:37;;;;;;;4.55;3.90;;;24.10;99.90;;;23.96;100.00;97961.91;5005621;28;20104;-75
2023/08/16 08:40:08;;;;;;;4.82;3.42;;;24.20;99.90;;;24.82;100.00;97964.56;5000562;28;20081;-75
2023/08/16 08:42:36;;;;;;;5.18;3.58;;;24.50;99.90;;;24.75;100.00;97950.22;5030652;28;20150;-75
2023/08/16 08:45:05;;;;;;;6.63;3.75;;;25.10;99.90;;;26.04;100.00;97937.66;5002207;28;20046;-75
2023/08/16 08:47:32;;;;;;;4.43;3.35;;;25.70;99.90;;;25.05;100.00;97941.13;5015332;28;20125;-75
2023/08/16 08:50:02;;;;;;;4.13;3.67;;;25.90;99.90;;;25.28;100.00;97944.22;5003841;28;20093;-75
2023/08/16 08:52:30;;;;;;;4.95;3.10;;;26.10;99.90;;;25.60;100.00;97953.53;4998632;28;20052;-75
2023/08/16 08:54:58;;;;;;;5.45;4.28;;;26.70;99.90;;;25.08;100.00;97950.59;5027303;28;20049;-75
2023/08/16 08:57:30;;;;;;;5.57;3.75;;;26.40;99.90;;;24.89;100.00;97956.84;5001417;28;20038;-75
2023/08/16 09:00:02;;;;;;;5.50;4.13;;;26.00;99.90;;;24.43;100.00;97954.88;5004262;28;20050;-75
2023/08/16 09:02:33;;;;;;;6.88;3.90;;;25.60;99.90;;;24.55;100.00;97957.38;4987865;28;20050;-75
2023/08/16 09:05:03;;;;;;;;;;;25.60;99.90;;;24.28;100.00;97966.06;5030675;28;20657;-76
2023/08/16 09:07:32;;;;;;;5.45;4.40;;;25.40;99.90;;;24.05;100.00;97974.34;4987903;28;20625;-76
2023/08/16 09:10:00;;;;;;;6.15;4.72;;;25.00;99.90;;;23.98;100.00;97976.72;4998729;28;20049;-76
2023/08/16 09:12:30;;;;;;;6.30;5.22;;;24.70;99.90;;;23.35;100.00;97984.97;5001586;28;20050;-75
2023/08/16 09:14:58;;;;;;;6.18;5.07;;;24.50;99.90;;;23.39;100.00;97990.84;4992740;28;20056;-75
2023/08/16 09:17:25;;;;;;;8.15;5.63;;;24.50;99.90;;;23.75;100.00;97993.88;5021083;28;20049;-75
2023/08/16 09:19:52;;;;;;;6.45;4.85;;;24.30;99.90;;;24.30;100.00;97993.31;5004061;28;20111;-75
2023/08/16 09:22:19;;;;;;;6.43;5.00;;;24.50;99.90;;;24.15;100.00;97982.28;5005203;28;20116;-75
2023/08/16 09:24:46;;;;;;;7.95;5.55;;;24.80;99.90;;;24.17;100.00;97980.31;5000056;28;20132;-76
2023/08/16 09:27:13;;;;;;;6.25;4.90;;;24.80;99.90;;;24.00;100.00;97992.50;5001352;28;20112;-76
2023/08/16 09:29:40;;;;;;;6.68;4.68;;;24.70;99.90;;;23.90;100.00;97988.97;5001393;28;20135;-75
2023/08/16 09:32:09;;;;;;;7.65;5.25;;;24.60;99.90;;;24.23;100.00;97985.06;5006356;28;20054;-76
2023/08/16 09:34:48;;;;;;;6.82;5.28;;;24.60;99.90;;;24.20;100.00;97980.06;5006691;28;20045;-76
2023/08/16 09:37:22;;;;;;;9.65;5.35;;;24.70;99.90;;;24.85;100.00;97977.53;5030987;28;20053;-75
2023/08/16 09:39:57;;;;;;;7.03;5.03;;;24.90;99.90;;;24.97;100.00;97972.88;5001050;28;20753;-75
2023/08/16 09:42:32;;;;;;;6.45;4.88;;;25.30;99.90;;;25.49;100.00;97959.91;5000948;28;20114;-76
2023/08/16 09:45:00;;;;;;;8.68;5.15;;;25.80;99.90;;;25.49;100.00;97949.25;5005139;28;20085;-76
2023/08/16 09:47:30;;;;;;;5.53;3.72;;;26.20;99.90;;;26.55;100.00;97941.38;5019839;28;20137;-75
2023/08/16 09:50:05;;;;;;;6.47;3.80;;;26.80;99.90;;;27.40;100.00;97935.25;4999049;28;20050;-76
2023/08/16 09:52:34;;;;;;;4.80;3.25;;;27.60;99.90;;;27.52;100.00;97926.78;5001948;28;20518;-76
2023/08/16 09:55:03;;;;;;;4.93;3.10;;;28.10;99.90;;;26.86;100.00;97933.69;5019971;28;20099;-76
2023/08/16 09:57:31;;;;;;;4.30;3.63;;;27.70;99.90;;;26.26;100.00;97931.84;5002942;28;20099;-75
2023/08/16 09:59:58;;;;;;;5.47;4.25;;;27.40;99.90;;;25.73;100.00;97943.38;5019344;28;20050;-76
2023/08/16 10:02:25;;;;;;;6.28;3.50;;;26.90;99.90;;;25.41;100.00;97935.91;5001729;28;20537;-74
2023/08/16 10:04:56;;;;;;;6.43;3.33;;;26.50;99.90;;;25.61;100.00;97944.56;5004541;28;20139;-75
2023/08/16 10:07:27;;;;;;;6.10;3.00;;;26.30;99.90;;;26.67;100.00;97931.28;5003823;28;20621;-74
2023/08/16 10:09:55;;;;;;;6.88;3.38;;;26.60;99.90;;;26.39;100.00;97930.59;4999412;28;20050;-76
2023/08/16 10:12:23;;;;;;;4.68;2.95;;;26.70;99.90;;;26.43;100.00;97923.97;5018000;28;20077;-74